sensor_id;sensor_type;location;lat;lon;timestamp;pressure;altitude;pressure_sealevel;temperature;humidity
24620;BME280;12763;55.802;37.404;2023-07-29T00:00:35;98563.56;;;17.67;100.00
24620;BME280;12763;55.802;37.404;2023-07-29T00:03:01;98572.41;;;17.74;100.00
24620;BME280;12763;55.802;37.404;2023-07-29T00:05:27;98559.84;;;17.76;100.00
24620;BME280;12763;55.802;37.404;2023-07-29T00:07:52;98553.47;;;17.76;100.00
24620;BME280;12763;55.802;37.404;2023-07-29T00:10:18;98537.78;;;17.80;100.00
24620;BME280;12763;55.802;37.404;2023-07-29T00:12:45;98542.78;;;17.83;100.00
24620;BME280;12763;55.802;37.404;2023-07-29T00:15:11;98541.50;;;17.70;100.00
24620;BME280;12763;55.802;37.404;2023-07-29T00:17:37;98550.63;;;17.81;100.00
24620;BME280;12763;55.802;37.404;2023-07-29T00:20:03;98552.84;;;17.84;100.00
24620;BME280;12763;55.802;37.404;2023-07-29T00:22:31;98560.72;;;17.72;100.00
24620;BME280;12763;55.802;37.404;2023-07-29T00:24:56;98569.03;;;17.82;100.00
24620;BME280;12763;55.802;37.404;2023-07-29T00:27:23;98563.50;;;17.72;100.00
24620;BME280;12763;55.802;37.404;2023-07-29T00:29:49;98573.31;;;17.64;100.00
24620;BME280;12763;55.802;37.404;2023-07-29T00:32:15;98570.81;;;17.63;100.00
24620;BME280;12763;55.802;37.404;2023-07-29T00:34:41;98552.69;;;17.60;100.00
24620;BME280;12763;55.802;37.404;2023-07-29T00:37:07;98563.59;;;17.51;100.00
24620;BME280;12763;55.802;37.404;2023-07-29T00:39:33;98560.84;;;17.41;100.00
24620;BME280;12763;55.802;37.404;2023-07-29T00:41:59;98546.59;;;17.53;100.00
24620;BME280;12763;55.802;37.404;2023-07-29T00:44:25;98545.16;;;17.60;100.00
24620;BME280;12763;55.802;37.404;2023-07-29T00:46:52;98556.78;;;17.78;100.00
24620;BME280;12763;55.802;37.404;2023-07-29T00:49:20;98554.59;;;17.70;100.00
24620;BME280;12763;55.802;37.404;2023-07-29T00:51:47;98549.34;;;17.63;100.00
24620;BME280;12763;55.802;37.404;2023-07-29T00:54:13;98551.47;;;17.76;100.00
24620;BME280;12763;55.802;37.404;2023-07-29T00:56:40;98545.91;;;17.76;100.00
24620;BME280;12763;55.802;37.404;2023-07-29T00:59:07;98536.94;;;17.79;100.00
24620;BME280;12763;55.802;37.404;2023-07-29T01:01:33;98535.94;;;17.65;100.00
24620;BME280;12763;55.802;37.404;2023-07-29T01:03:59;98538.44;;;17.67;100.00
24620;BME280;12763;55.802;37.404;2023-07-29T01:06:38;98539.56;;;17.66;100.00
24620;BME280;12763;55.802;37.404;2023-07-29T01:12:25;98522.78;;;17.71;100.00
24620;BME280;12763;55.802;37.404;2023-07-29T01:15:22;98521.47;;;17.58;100.00
24620;BME280;12763;55.802;37.404;2023-07-29T01:17:55;98521.97;;;17.70;100.00
24620;BME280;12763;55.802;37.404;2023-07-29T01:20:23;98519.25;;;17.55;100.00
24620;BME280;12763;55.802;37.404;2023-07-29T01:22:50;98520.09;;;17.55;100.00
24620;BME280;12763;55.802;37.404;2023-07-29T01:25:16;98505.84;;;17.57;100.00
24620;BME280;12763;55.802;37.404;2023-07-29T01:27:46;98498.31;;;17.57;100.00
24620;BME280;12763;55.802;37.404;2023-07-29T01:30:12;98502.00;;;17.43;100.00
24620;BME280;12763;55.802;37.404;2023-07-29T01:35:28;98510.53;;;17.67;100.00
24620;BME280;12763;55.802;37.404;2023-07-29T01:38:14;98499.44;;;17.56;100.00
24620;BME280;12763;55.802;37.404;2023-07-29T01:40:43;98493.06;;;17.46;100.00
24620;BME280;12763;55.802;37.404;2023-07-29T01:43:10;98490.63;;;17.39;100.00
24620;BME280;12763;55.802;37.404;2023-07-29T01:45:37;98504.56;;;17.39;100.00
24620;BME280;12763;55.802;37.404;2023-07-29T01:48:05;98493.38;;;17.44;100.00
24620;BME280;12763;55.802;37.404;2023-07-29T01:50:31;98491.97;;;17.42;100.00
24620;BME280;12763;55.802;37.404;2023-07-29T01:53:01;98501.72;;;17.44;100.00
24620;BME280;12763;55.802;37.404;2023-07-29T01:55:27;98495.63;;;17.37;100.00
24620;BME280;12763;55.802;37.404;2023-07-29T01:57:53;98503.44;;;17.35;100.00
24620;BME280;12763;55.802;37.404;2023-07-29T02:00:24;98508.72;;;17.42;100.00
24620;BME280;12763;55.802;37.404;2023-07-29T02:02:50;98512.63;;;17.41;100.00
24620;BME280;12763;55.802;37.404;2023-07-29T02:05:15;98516.78;;;17.43;100.00
24620;BME280;12763;55.802;37.404;2023-07-29T02:07:41;98498.16;;;17.34;100.00
24620;BME280;12763;55.802;37.404;2023-07-29T02:10:08;98507.94;;;17.31;100.00
24620;BME280;12763;55.802;37.404;2023-07-29T02:12:34;98508.16;;;17.40;100.00
24620;BME280;12763;55.802;37.404;2023-07-29T02:15:02;98510.06;;;17.49;100.00
24620;BME280;12763;55.802;37.404;2023-07-29T02:17:31;98516.50;;;17.45;100.00
24620;BME280;12763;55.802;37.404;2023-07-29T02:19:57;98525.69;;;17.45;100.00
24620;BME280;12763;55.802;37.404;2023-07-29T02:22:23;98531.59;;;17.39;100.00
24620;BME280;12763;55.802;37.404;2023-07-29T02:24:49;98541.34;;;17.41;100.00
24620;BME280;12763;55.802;37.404;2023-07-29T02:27:14;98539.72;;;17.30;100.00
24620;BME280;12763;55.802;37.404;2023-07-29T02:29:41;98543.28;;;17.41;100.00
24620;BME280;12763;55.802;37.404;2023-07-29T02:32:07;98543.00;;;17.37;100.00
24620;BME280;12763;55.802;37.404;2023-07-29T02:34:34;98544.66;;;17.53;100.00
24620;BME280;12763;55.802;37.404;2023-07-29T02:37:00;98555.25;;;17.46;100.00
24620;BME280;12763;55.802;37.404;2023-07-29T02:39:26;98548.59;;;17.42;100.00
24620;BME280;12763;55.802;37.404;2023-07-29T02:41:52;98556.38;;;17.40;100.00
24620;BME280;12763;55.802;37.404;2023-07-29T02:44:17;98561.13;;;17.40;100.00
24620;BME280;12763;55.802;37.404;2023-07-29T02:46:45;98559.75;;;17.37;100.00
24620;BME280;12763;55.802;37.404;2023-07-29T02:49:11;98560.91;;;17.31;100.00
24620;BME280;12763;55.802;37.404;2023-07-29T02:51:37;98547.78;;;17.32;100.00
24620;BME280;12763;55.802;37.404;2023-07-29T02:54:02;98548.94;;;17.26;100.00
24620;BME280;12763;55.802;37.404;2023-07-29T02:56:28;98546.97;;;17.31;100.00
24620;BME280;12763;55.802;37.404;2023-07-29T02:58:56;98533.63;;;17.18;100.00
24620;BME280;12763;55.802;37.404;2023-07-29T03:01:22;98532.81;;;17.13;100.00
24620;BME280;12763;55.802;37.404;2023-07-29T03:03:51;98525.28;;;17.18;100.00
24620;BME280;12763;55.802;37.404;2023-07-29T03:06:17;98523.56;;;17.27;100.00
24620;BME280;12763;55.802;37.404;2023-07-29T03:08:42;98516.31;;;17.31;100.00
24620;BME280;12763;55.802;37.404;2023-07-29T03:11:12;98507.59;;;17.38;100.00
24620;BME280;12763;55.802;37.404;2023-07-29T03:13:38;98507.06;;;17.36;100.00
24620;BME280;12763;55.802;37.404;2023-07-29T03:18:34;98511.91;;;17.15;100.00
24620;BME280;12763;55.802;37.404;2023-07-29T03:21:00;98506.56;;;17.24;100.00
24620;BME280;12763;55.802;37.404;2023-07-29T03:23:28;98506.84;;;17.27;100.00
24620;BME280;12763;55.802;37.404;2023-07-29T03:25:58;98505.34;;;17.40;100.00
24620;BME280;12763;55.802;37.404;2023-07-29T03:28:29;98500.69;;;17.30;100.00
24620;BME280;12763;55.802;37.404;2023-07-29T03:30:56;98498.44;;;17.32;100.00
24620;BME280;12763;55.802;37.404;2023-07-29T03:33:22;98496.78;;;17.31;100.00
24620;BME280;12763;55.802;37.404;2023-07-29T03:35:48;98498.16;;;17.29;100.00
24620;BME280;12763;55.802;37.404;2023-07-29T03:38:15;98496.81;;;17.21;100.00
24620;BME280;12763;55.802;37.404;2023-07-29T03:40:41;98498.47;;;17.27;100.00
24620;BME280;12763;55.802;37.404;2023-07-29T03:43:08;98500.66;;;17.35;100.00
24620;BME280;12763;55.802;37.404;2023-07-29T03:45:35;98493.41;;;17.34;100.00
24620;BME280;12763;55.802;37.404;2023-07-29T03:48:02;98486.78;;;17.25;100.00
24620;BME280;12763;55.802;37.404;2023-07-29T03:50:29;98480.00;;;17.41;100.00
24620;BME280;12763;55.802;37.404;2023-07-29T03:52:56;98479.47;;;17.39;100.00
24620;BME280;12763;55.802;37.404;2023-07-29T03:55:22;98473.56;;;17.41;100.00
24620;BME280;12763;55.802;37.404;2023-07-29T03:57:48;98473.28;;;17.47;100.00
24620;BME280;12763;55.802;37.404;2023-07-29T04:00:14;98479.06;;;17.51;100.00
24620;BME280;12763;55.802;37.404;2023-07-29T04:02:47;98473.00;;;17.44;100.00
24620;BME280;12763;55.802;37.404;2023-07-29T04:05:13;98465.97;;;17.56;100.00
24620;BME280;12763;55.802;37.404;2023-07-29T04:07:40;98454.81;;;17.56;100.00
24620;BME280;12763;55.802;37.404;2023-07-29T04:10:07;98465.13;;;17.61;100.00
24620;BME280;12763;55.802;37.404;2023-07-29T04:12:33;98466.56;;;17.53;100.00
24620;BME280;12763;55.802;37.404;2023-07-29T04:14:59;98467.69;;;17.47;100.00
24620;BME280;12763;55.802;37.404;2023-07-29T04:17:25;98455.41;;;17.53;100.00
24620;BME280;12763;55.802;37.404;2023-07-29T04:19:51;98456.19;;;17.64;100.00
24620;BME280;12763;55.802;37.404;2023-07-29T04:22:19;98467.81;;;17.71;100.00
24620;BME280;12763;55.802;37.404;2023-07-29T04:24:45;98465.97;;;17.51;100.00
24620;BME280;12763;55.802;37.404;2023-07-29T04:27:11;98464.31;;;17.55;100.00
24620;BME280;12763;55.802;37.404;2023-07-29T04:29:37;98460.13;;;17.53;100.00
24620;BME280;12763;55.802;37.404;2023-07-29T04:32:04;98463.97;;;17.62;100.00
24620;BME280;12763;55.802;37.404;2023-07-29T04:34:31;98459.28;;;17.57;100.00
24620;BME280;12763;55.802;37.404;2023-07-29T04:36:57;98462.28;;;17.66;100.00
24620;BME280;12763;55.802;37.404;2023-07-29T04:39:23;98459.19;;;17.73;100.00
24620;BME280;12763;55.802;37.404;2023-07-29T04:41:49;98458.75;;;17.55;100.00
24620;BME280;12763;55.802;37.404;2023-07-29T04:44:15;98462.06;;;17.57;100.00
24620;BME280;12763;55.802;37.404;2023-07-29T04:46:41;98453.69;;;17.57;100.00
24620;BME280;12763;55.802;37.404;2023-07-29T04:49:07;98461.22;;;17.52;100.00
24620;BME280;12763;55.802;37.404;2023-07-29T04:51:33;98460.44;;;17.46;100.00
24620;BME280;12763;55.802;37.404;2023-07-29T04:53:59;98467.94;;;17.51;100.00
24620;BME280;12763;55.802;37.404;2023-07-29T04:56:26;98457.66;;;17.46;100.00
24620;BME280;12763;55.802;37.404;2023-07-29T04:58:51;98471.28;;;17.53;100.00
24620;BME280;12763;55.802;37.404;2023-07-29T05:01:18;98467.09;;;17.55;100.00
24620;BME280;12763;55.802;37.404;2023-07-29T05:03:44;98465.38;;;17.59;100.00
24620;BME280;12763;55.802;37.404;2023-07-29T05:06:11;98463.53;;;17.45;100.00
24620;BME280;12763;55.802;37.404;2023-07-29T05:08:37;98459.94;;;17.39;100.00
24620;BME280;12763;55.802;37.404;2023-07-29T05:11:03;98458.44;;;17.52;100.00
24620;BME280;12763;55.802;37.404;2023-07-29T05:13:29;98451.47;;;17.54;100.00
24620;BME280;12763;55.802;37.404;2023-07-29T05:15:56;98459.28;;;17.52;100.00
24620;BME280;12763;55.802;37.404;2023-07-29T05:18:22;98454.94;;;17.36;100.00
24620;BME280;12763;55.802;37.404;2023-07-29T05:20:49;98451.53;;;17.44;100.00
24620;BME280;12763;55.802;37.404;2023-07-29T05:23:15;98452.03;;;17.51;100.00
24620;BME280;12763;55.802;37.404;2023-07-29T05:25:42;98432.88;;;17.40;100.00
24620;BME280;12763;55.802;37.404;2023-07-29T05:28:07;98438.66;;;17.48;100.00
24620;BME280;12763;55.802;37.404;2023-07-29T05:30:33;98439.19;;;17.60;100.00
24620;BME280;12763;55.802;37.404;2023-07-29T05:33:03;98440.59;;;17.58;100.00
24620;BME280;12763;55.802;37.404;2023-07-29T05:35:39;98433.63;;;17.55;100.00
24620;BME280;12763;55.802;37.404;2023-07-29T05:38:06;98438.69;;;17.53;100.00
24620;BME280;12763;55.802;37.404;2023-07-29T05:40:34;98436.88;;;17.73;100.00
24620;BME280;12763;55.802;37.404;2023-07-29T05:43:01;98435.09;;;17.82;100.00
24620;BME280;12763;55.802;37.404;2023-07-29T05:45:27;98437.34;;;17.80;100.00
24620;BME280;12763;55.802;37.404;2023-07-29T05:47:53;98430.09;;;17.79;100.00
24620;BME280;12763;55.802;37.404;2023-07-29T05:50:20;98436.44;;;17.89;100.00
24620;BME280;12763;55.802;37.404;2023-07-29T05:52:46;98441.34;;;18.02;100.00
24620;BME280;12763;55.802;37.404;2023-07-29T05:55:13;98434.88;;;18.07;100.00
24620;BME280;12763;55.802;37.404;2023-07-29T05:57:39;98433.75;;;18.08;100.00
24620;BME280;12763;55.802;37.404;2023-07-29T06:00:08;98438.16;;;18.14;100.00
24620;BME280;12763;55.802;37.404;2023-07-29T06:02:40;98435.22;;;18.00;100.00
24620;BME280;12763;55.802;37.404;2023-07-29T06:05:13;98437.03;;;17.86;100.00
24620;BME280;12763;55.802;37.404;2023-07-29T06:07:39;98442.19;;;18.03;100.00
24620;BME280;12763;55.802;37.404;2023-07-29T06:10:13;98445.00;;;17.98;100.00
24620;BME280;12763;55.802;37.404;2023-07-29T06:12:39;98445.59;;;17.95;100.00
24620;BME280;12763;55.802;37.404;2023-07-29T06:15:05;98457.19;;;18.07;100.00
24620;BME280;12763;55.802;37.404;2023-07-29T06:17:31;98457.84;;;17.99;100.00
24620;BME280;12763;55.802;37.404;2023-07-29T06:19:57;98466.75;;;18.01;100.00
24620;BME280;12763;55.802;37.404;2023-07-29T06:22:23;98468.50;;;17.92;100.00
24620;BME280;12763;55.802;37.404;2023-07-29T06:24:49;98470.72;;;17.90;100.00
24620;BME280;12763;55.802;37.404;2023-07-29T06:27:15;98476.31;;;17.90;100.00
24620;BME280;12763;55.802;37.404;2023-07-29T06:29:41;98481.91;;;17.90;100.00
24620;BME280;12763;55.802;37.404;2023-07-29T06:32:07;98471.41;;;17.77;100.00
24620;BME280;12763;55.802;37.404;2023-07-29T06:34:33;98487.81;;;17.83;100.00
24620;BME280;12763;55.802;37.404;2023-07-29T06:36:58;98486.66;;;17.89;100.00
24620;BME280;12763;55.802;37.404;2023-07-29T06:39:24;98488.31;;;17.90;100.00
24620;BME280;12763;55.802;37.404;2023-07-29T06:41:50;98496.91;;;17.99;100.00
24620;BME280;12763;55.802;37.404;2023-07-29T06:44:18;98494.41;;;17.97;100.00
24620;BME280;12763;55.802;37.404;2023-07-29T06:46:44;98504.75;;;17.97;100.00
24620;BME280;12763;55.802;37.404;2023-07-29T06:49:09;98493.03;;;17.95;100.00
24620;BME280;12763;55.802;37.404;2023-07-29T06:51:35;98501.41;;;17.95;100.00
24620;BME280;12763;55.802;37.404;2023-07-29T06:54:02;98503.44;;;17.84;100.00
24620;BME280;12763;55.802;37.404;2023-07-29T06:56:29;98502.63;;;17.79;100.00
24620;BME280;12763;55.802;37.404;2023-07-29T06:58:55;98504.81;;;17.87;100.00
24620;BME280;12763;55.802;37.404;2023-07-29T07:01:21;98509.00;;;17.84;100.00
24620;BME280;12763;55.802;37.404;2023-07-29T07:03:47;98514.97;;;17.73;100.00
24620;BME280;12763;55.802;37.404;2023-07-29T07:06:13;98517.75;;;17.73;100.00
24620;BME280;12763;55.802;37.404;2023-07-29T07:08:39;98518.56;;;17.73;100.00
24620;BME280;12763;55.802;37.404;2023-07-29T07:11:06;98525.34;;;17.67;100.00
24620;BME280;12763;55.802;37.404;2023-07-29T07:13:33;98532.91;;;17.62;100.00
24620;BME280;12763;55.802;37.404;2023-07-29T07:15:59;98533.31;;;17.84;100.00
24620;BME280;12763;55.802;37.404;2023-07-29T07:18:24;98528.31;;;17.81;100.00
24620;BME280;12763;55.802;37.404;2023-07-29T07:20:51;98522.59;;;17.96;100.00
24620;BME280;12763;55.802;37.404;2023-07-29T07:23:18;98523.97;;;17.98;100.00
24620;BME280;12763;55.802;37.404;2023-07-29T07:25:44;98521.44;;;18.02;100.00
24620;BME280;12763;55.802;37.404;2023-07-29T07:28:10;98522.53;;;18.06;100.00
24620;BME280;12763;55.802;37.404;2023-07-29T07:30:40;98523.56;;;18.15;100.00
24620;BME280;12763;55.802;37.404;2023-07-29T07:33:08;98523.91;;;18.08;100.00
24620;BME280;12763;55.802;37.404;2023-07-29T07:35:34;98519.88;;;18.25;100.00
24620;BME280;12763;55.802;37.404;2023-07-29T07:38:00;98520.41;;;18.27;100.00
24620;BME280;12763;55.802;37.404;2023-07-29T07:40:33;98519.66;;;18.16;100.00
24620;BME280;12763;55.802;37.404;2023-07-29T07:42:59;98522.97;;;18.18;100.00
24620;BME280;12763;55.802;37.404;2023-07-29T07:45:25;98520.00;;;18.38;100.00
24620;BME280;12763;55.802;37.404;2023-07-29T07:47:54;98522.97;;;18.52;100.00
24620;BME280;12763;55.802;37.404;2023-07-29T07:50:20;98516.50;;;18.56;100.00
24620;BME280;12763;55.802;37.404;2023-07-29T07:52:46;98519.22;;;18.66;100.00
24620;BME280;12763;55.802;37.404;2023-07-29T07:55:12;98519.63;;;18.78;100.00
24620;BME280;12763;55.802;37.404;2023-07-29T07:57:38;98518.16;;;19.10;100.00
24620;BME280;12763;55.802;37.404;2023-07-29T08:00:04;98509.78;;;19.28;100.00
24620;BME280;12763;55.802;37.404;2023-07-29T08:02:39;98499.25;;;19.02;100.00
24620;BME280;12763;55.802;37.404;2023-07-29T08:05:05;98507.44;;;18.93;100.00
24620;BME280;12763;55.802;37.404;2023-07-29T08:07:31;98512.69;;;19.00;100.00
24620;BME280;12763;55.802;37.404;2023-07-29T08:09:57;98519.88;;;18.53;100.00
24620;BME280;12763;55.802;37.404;2023-07-29T08:12:23;98511.41;;;18.63;100.00
24620;BME280;12763;55.802;37.404;2023-07-29T08:14:49;98515.66;;;18.85;100.00
24620;BME280;12763;55.802;37.404;2023-07-29T08:17:14;98518.97;;;18.87;100.00
24620;BME280;12763;55.802;37.404;2023-07-29T08:19:40;98511.81;;;18.75;100.00
24620;BME280;12763;55.802;37.404;2023-07-29T08:22:06;98507.97;;;18.71;100.00
24620;BME280;12763;55.802;37.404;2023-07-29T08:24:32;98503.63;;;18.84;100.00
24620;BME280;12763;55.802;37.404;2023-07-29T08:26:57;98511.59;;;18.96;100.00
24620;BME280;12763;55.802;37.404;2023-07-29T08:29:23;98511.84;;;18.99;100.00
24620;BME280;12763;55.802;37.404;2023-07-29T08:31:49;98521.00;;;19.05;100.00
24620;BME280;12763;55.802;37.404;2023-07-29T08:34:17;98509.63;;;19.20;100.00
24620;BME280;12763;55.802;37.404;2023-07-29T08:36:43;98514.72;;;18.94;100.00
24620;BME280;12763;55.802;37.404;2023-07-29T08:39:09;98519.19;;;19.14;100.00
24620;BME280;12763;55.802;37.404;2023-07-29T08:41:49;98519.44;;;19.17;100.00
24620;BME280;12763;55.802;37.404;2023-07-29T08:44:21;98514.94;;;18.98;100.00
24620;BME280;12763;55.802;37.404;2023-07-29T08:46:50;98527.31;;;19.15;100.00
24620;BME280;12763;55.802;37.404;2023-07-29T08:49:18;98517.03;;;19.11;100.00
24620;BME280;12763;55.802;37.404;2023-07-29T08:51:49;98504.78;;;18.83;100.00
24620;BME280;12763;55.802;37.404;2023-07-29T08:54:16;98504.06;;;18.96;100.00
24620;BME280;12763;55.802;37.404;2023-07-29T08:56:43;98502.56;;;18.80;100.00
24620;BME280;12763;55.802;37.404;2023-07-29T08:59:10;98513.09;;;18.88;100.00
24620;BME280;12763;55.802;37.404;2023-07-29T09:01:39;98510.78;;;19.19;100.00
24620;BME280;12763;55.802;37.404;2023-07-29T09:04:05;98494.50;;;19.45;100.00
24620;BME280;12763;55.802;37.404;2023-07-29T09:06:31;98508.66;;;19.53;100.00
24620;BME280;12763;55.802;37.404;2023-07-29T09:08:58;98505.41;;;19.46;100.00
24620;BME280;12763;55.802;37.404;2023-07-29T09:11:25;98519.44;;;19.17;100.00
24620;BME280;12763;55.802;37.404;2023-07-29T09:13:52;98504.59;;;18.98;100.00
24620;BME280;12763;55.802;37.404;2023-07-29T09:16:20;98499.59;;;19.19;100.00
24620;BME280;12763;55.802;37.404;2023-07-29T09:18:51;98504.69;;;19.12;100.00
24620;BME280;12763;55.802;37.404;2023-07-29T09:21:17;98504.63;;;19.17;100.00
24620;BME280;12763;55.802;37.404;2023-07-29T09:23:50;98497.38;;;19.16;100.00
24620;BME280;12763;55.802;37.404;2023-07-29T09:26:26;98508.16;;;19.27;100.00
24620;BME280;12763;55.802;37.404;2023-07-29T09:28:57;98508.50;;;19.21;100.00
24620;BME280;12763;55.802;37.404;2023-07-29T09:31:24;98508.28;;;19.36;100.00
24620;BME280;12763;55.802;37.404;2023-07-29T09:34:01;98510.78;;;19.19;100.00
24620;BME280;12763;55.802;37.404;2023-07-29T09:36:30;98510.28;;;19.12;100.00
24620;BME280;12763;55.802;37.404;2023-07-29T09:38:57;98515.78;;;19.22;100.00
24620;BME280;12763;55.802;37.404;2023-07-29T09:41:25;98512.06;;;19.26;100.00
24620;BME280;12763;55.802;37.404;2023-07-29T09:44:02;98519.97;;;19.43;100.00
24620;BME280;12763;55.802;37.404;2023-07-29T09:46:34;98518.31;;;19.42;100.00
24620;BME280;12763;55.802;37.404;2023-07-29T09:49:06;98513.13;;;19.54;100.00
24620;BME280;12763;55.802;37.404;2023-07-29T09:51:39;98506.53;;;19.64;100.00
24620;BME280;12763;55.802;37.404;2023-07-29T09:54:05;98510.69;;;19.66;100.00
24620;BME280;12763;55.802;37.404;2023-07-29T09:56:31;98512.88;;;19.69;100.00
24620;BME280;12763;55.802;37.404;2023-07-29T09:58:57;98520.31;;;19.60;100.00
24620;BME280;12763;55.802;37.404;2023-07-29T10:01:24;98519.75;;;19.58;100.00
24620;BME280;12763;55.802;37.404;2023-07-29T10:03:49;98523.31;;;19.45;100.00
24620;BME280;12763;55.802;37.404;2023-07-29T10:06:16;98524.22;;;19.41;100.00
24620;BME280;12763;55.802;37.404;2023-07-29T10:08:43;98525.16;;;19.55;100.00
24620;BME280;12763;55.802;37.404;2023-07-29T10:11:10;98531.88;;;19.54;100.00
24620;BME280;12763;55.802;37.404;2023-07-29T10:13:37;98521.78;;;19.53;100.00
24620;BME280;12763;55.802;37.404;2023-07-29T10:16:04;98524.63;;;19.71;100.00
24620;BME280;12763;55.802;37.404;2023-07-29T10:18:32;98528.03;;;19.87;100.00
24620;BME280;12763;55.802;37.404;2023-07-29T10:21:00;98530.66;;;19.78;100.00
24620;BME280;12763;55.802;37.404;2023-07-29T10:23:27;98533.47;;;19.78;100.00
24620;BME280;12763;55.802;37.404;2023-07-29T10:26:04;98533.63;;;19.87;100.00
24620;BME280;12763;55.802;37.404;2023-07-29T10:28:31;98532.88;;;19.81;100.00
24620;BME280;12763;55.802;37.404;2023-07-29T10:30:59;98534.38;;;19.92;100.00
24620;BME280;12763;55.802;37.404;2023-07-29T10:33:26;98532.00;;;20.00;100.00
24620;BME280;12763;55.802;37.404;2023-07-29T10:35:53;98522.13;;;20.07;100.00
24620;BME280;12763;55.802;37.404;2023-07-29T10:38:23;98522.16;;;20.21;100.00
24620;BME280;12763;55.802;37.404;2023-07-29T10:40:57;98519.09;;;20.04;100.00
24620;BME280;12763;55.802;37.404;2023-07-29T10:43:28;98524.00;;;20.12;100.00
24620;BME280;12763;55.802;37.404;2023-07-29T10:45:57;98523.25;;;19.87;100.00
24620;BME280;12763;55.802;37.404;2023-07-29T10:51:34;98523.19;;;19.92;100.00
24620;BME280;12763;55.802;37.404;2023-07-29T10:54:10;98517.56;;;19.92;100.00
24620;BME280;12763;55.802;37.404;2023-07-29T10:56:39;98520.72;;;20.23;100.00
24620;BME280;12763;55.802;37.404;2023-07-29T11:01:41;98521.22;;;20.44;100.00
24620;BME280;12763;55.802;37.404;2023-07-29T11:09:51;98515.81;;;20.34;100.00
24620;BME280;12763;55.802;37.404;2023-07-29T11:12:45;98523.22;;;20.25;100.00
24620;BME280;12763;55.802;37.404;2023-07-29T11:15:12;98518.09;;;20.32;100.00
24620;BME280;12763;55.802;37.404;2023-07-29T11:17:59;98515.19;;;20.37;100.00
24620;BME280;12763;55.802;37.404;2023-07-29T11:20:27;98519.97;;;20.36;100.00
24620;BME280;12763;55.802;37.404;2023-07-29T11:22:55;98511.31;;;20.33;100.00
24620;BME280;12763;55.802;37.404;2023-07-29T11:25:22;98506.78;;;20.37;100.00
24620;BME280;12763;55.802;37.404;2023-07-29T11:27:51;98510.44;;;20.37;100.00
24620;BME280;12763;55.802;37.404;2023-07-29T11:30:17;98512.78;;;20.30;100.00
24620;BME280;12763;55.802;37.404;2023-07-29T11:32:44;98519.66;;;20.38;100.00
24620;BME280;12763;55.802;37.404;2023-07-29T11:35:16;98528.06;;;20.38;100.00
24620;BME280;12763;55.802;37.404;2023-07-29T11:37:50;98523.13;;;20.48;100.00
24620;BME280;12763;55.802;37.404;2023-07-29T11:40:17;98529.34;;;20.45;100.00
24620;BME280;12763;55.802;37.404;2023-07-29T11:42:44;98533.09;;;20.55;100.00
24620;BME280;12763;55.802;37.404;2023-07-29T11:45:11;98537.56;;;20.56;100.00
24620;BME280;12763;55.802;37.404;2023-07-29T11:47:37;98552.13;;;20.39;100.00
24620;BME280;12763;55.802;37.404;2023-07-29T11:50:08;98546.72;;;20.29;100.00
24620;BME280;12763;55.802;37.404;2023-07-29T11:52:41;98540.03;;;20.25;100.00
24620;BME280;12763;55.802;37.404;2023-07-29T11:55:08;98556.00;;;20.06;100.00
24620;BME280;12763;55.802;37.404;2023-07-29T11:57:36;98546.91;;;20.14;100.00
24620;BME280;12763;55.802;37.404;2023-07-29T12:00:06;98540.94;;;20.39;100.00
24620;BME280;12763;55.802;37.404;2023-07-29T12:02:40;98546.56;;;20.52;100.00
24620;BME280;12763;55.802;37.404;2023-07-29T12:05:08;98542.63;;;20.54;100.00
24620;BME280;12763;55.802;37.404;2023-07-29T12:07:35;98540.22;;;20.47;100.00
24620;BME280;12763;55.802;37.404;2023-07-29T12:10:05;98544.09;;;20.51;100.00
24620;BME280;12763;55.802;37.404;2023-07-29T12:12:31;98548.78;;;20.69;100.00
24620;BME280;12763;55.802;37.404;2023-07-29T12:14:58;98545.28;;;20.77;100.00
24620;BME280;12763;55.802;37.404;2023-07-29T12:17:24;98545.34;;;20.59;100.00
24620;BME280;12763;55.802;37.404;2023-07-29T12:19:49;98533.28;;;20.58;100.00
24620;BME280;12763;55.802;37.404;2023-07-29T12:22:19;98542.94;;;20.52;100.00
24620;BME280;12763;55.802;37.404;2023-07-29T12:24:45;98540.56;;;20.59;100.00
24620;BME280;12763;55.802;37.404;2023-07-29T12:27:12;98533.91;;;20.55;100.00
24620;BME280;12763;55.802;37.404;2023-07-29T12:29:43;98529.25;;;20.50;100.00
24620;BME280;12763;55.802;37.404;2023-07-29T12:32:10;98532.28;;;20.54;100.00
24620;BME280;12763;55.802;37.404;2023-07-29T12:34:37;98531.09;;;20.55;100.00
24620;BME280;12763;55.802;37.404;2023-07-29T12:37:06;98534.53;;;20.52;100.00
24620;BME280;12763;55.802;37.404;2023-07-29T12:39:34;98527.69;;;20.58;100.00
24620;BME280;12763;55.802;37.404;2023-07-29T12:42:02;98528.91;;;20.52;100.00
24620;BME280;12763;55.802;37.404;2023-07-29T12:44:33;98528.72;;;20.48;100.00
24620;BME280;12763;55.802;37.404;2023-07-29T12:47:03;98523.16;;;20.62;100.00
24620;BME280;12763;55.802;37.404;2023-07-29T12:49:30;98523.84;;;20.54;100.00
24620;BME280;12763;55.802;37.404;2023-07-29T12:51:56;98523.16;;;20.62;100.00
24620;BME280;12763;55.802;37.404;2023-07-29T12:54:22;98523.81;;;20.40;100.00
24620;BME280;12763;55.802;37.404;2023-07-29T12:56:48;98523.88;;;20.35;100.00
24620;BME280;12763;55.802;37.404;2023-07-29T12:59:14;98522.28;;;20.48;100.00
24620;BME280;12763;55.802;37.404;2023-07-29T13:01:40;98529.16;;;20.56;100.00